Accueil
METAR-TAF:

METAR-TAF

Aéroports :

Rheine, Allemagne

latitude: 52-18N, longitude: 007-23E, altitude: 40 m

Observation

Le bulletin a été fait il y a 27 minutes, à 16:20 UTC
Vent 5 kt de nord/nord-est
Température 20°C
Humidité 56%
Pression 1020 hPa

METAR: ETHE 221620Z AUTO 02005KT //// // ////// 20/11 Q1020 ///

Heure: 18:47 (16:47 UTC)

Prévision

Le bulletin a été fait il y a 3 heures et 32 minutes, à 13:15 UTC
Prévision valable du 22 à 11 UTC au 22 à 20 UTC
Vent 3 kt de direction variable
Visibilité: 1330 m
Quelques nuages à une hauteur de 4000 ft
Nuages épars à une hauteur de 22000 ft

TAF: ETHE 221315Z 2211/2220 VRB03KT 9999 NSW FEW040 SCT220 CANCEL 1330

Observations et prévisions météorologiques de plus de 4000 aéroports (messages METAR et TAF).

Les stations disponibles sont représentées par des disques jaunes et rouges sur la carte.

Passer la souris dessus pour voir le nom de la station.

Cliquer dessus pour voir les observations et prévisions météorologiques.

Pour changer de carte: cliquez sur les boutons verts avec une croix noire pour zoomer, sur le bouton vert avec un tiret pour effectuer un zoom arrière, ou sur les flèches vertes pour les cartes adjacentes.


METAR-TAF: